createdAt,value
2023-04-17T00:01:04.060Z,15.00
2023-04-17T00:06:10.004Z,13.70
2023-04-17T00:11:18.000Z,13.40
2023-04-17T00:16:24.319Z,14.50
2023-04-17T00:21:30.037Z,14.80
2023-04-17T00:26:35.673Z,16.60
2023-04-17T00:31:41.615Z,14.30
2023-04-17T00:36:47.042Z,13.70
2023-04-17T00:41:52.543Z,14.20
2023-04-17T00:46:57.951Z,14.40
2023-04-17T00:52:03.986Z,16.10
2023-04-17T00:57:09.909Z,13.80
2023-04-17T01:02:16.744Z,12.90
2023-04-17T01:07:22.568Z,14.60
2023-04-17T01:12:28.012Z,14.80
2023-04-17T01:17:33.594Z,14.30
2023-04-17T01:22:39.524Z,12.80
2023-04-17T01:27:44.935Z,14.50
2023-04-17T01:32:50.848Z,16.20
2023-04-17T01:37:56.891Z,14.70
2023-04-17T01:43:02.355Z,15.00
2023-04-17T01:48:08.710Z,15.90
2023-04-17T01:53:14.126Z,15.60
2023-04-17T01:58:19.987Z,15.00
2023-04-17T02:03:25.993Z,13.90
2023-04-17T02:08:31.550Z,14.10
2023-04-17T02:13:38.254Z,15.90
2023-04-17T02:18:43.770Z,16.70
2023-04-17T02:23:49.261Z,14.80
2023-04-17T02:28:54.949Z,14.10
2023-04-17T02:34:00.872Z,15.10
2023-04-17T02:39:07.438Z,15.10
2023-04-17T02:44:12.943Z,14.50
2023-04-17T02:49:18.548Z,13.80
2023-04-17T02:54:24.174Z,14.50
2023-04-17T02:59:30.314Z,16.70
2023-04-17T03:04:38.804Z,16.10
2023-04-17T03:09:45.787Z,14.50
2023-04-17T03:14:52.466Z,17.10
2023-04-17T03:19:57.911Z,18.40
2023-04-17T03:25:03.393Z,16.20
2023-04-17T03:30:15.816Z,16.10
2023-04-17T03:35:25.200Z,16.80
2023-04-17T03:40:33.209Z,17.30
2023-04-17T03:45:39.726Z,17.40
2023-04-17T03:50:45.387Z,16.20
2023-04-17T03:55:51.216Z,18.40
2023-04-17T04:01:04.123Z,18.90
2023-04-17T04:06:13.235Z,17.20
2023-04-17T04:11:18.855Z,15.30
2023-04-17T04:16:24.461Z,17.60
2023-04-17T04:21:31.820Z,18.30
2023-04-17T04:26:41.001Z,16.20
2023-04-17T04:31:46.920Z,15.90
2023-04-17T04:36:52.828Z,16.10
2023-04-17T04:42:29.431Z,15.90
2023-04-17T04:47:44.547Z,14.60
2023-04-17T04:52:50.864Z,14.20
2023-04-17T04:58:11.108Z,14.90
2023-04-17T05:03:17.588Z,15.90
2023-04-17T05:08:24.671Z,14.90
2023-04-17T05:13:39.272Z,14.90
2023-04-17T05:18:48.369Z,16.50
2023-04-17T05:23:56.929Z,16.60
2023-04-17T05:29:02.350Z,15.50
2023-04-17T05:34:10.344Z,15.00
2023-04-17T05:39:16.775Z,15.10
2023-04-17T05:44:22.578Z,15.70
2023-04-17T05:49:28.528Z,14.60
2023-04-17T05:54:34.145Z,14.40
2023-04-17T05:59:40.365Z,14.60
2023-04-17T06:04:48.056Z,15.60
2023-04-17T06:09:53.581Z,15.00
2023-04-17T06:14:59.627Z,13.90
2023-04-17T06:20:11.765Z,14.30
2023-04-17T06:25:18.131Z,15.00
2023-04-17T06:30:24.012Z,13.50
2023-04-17T06:35:31.843Z,13.10
2023-04-17T06:40:43.505Z,13.90
2023-04-17T06:45:49.918Z,13.00
2023-04-17T06:50:55.360Z,12.90
2023-04-17T06:56:00.846Z,17.40
2023-04-17T07:01:06.640Z,12.90
2023-04-17T07:06:12.391Z,11.40
2023-04-17T07:11:17.957Z,11.60
2023-04-17T07:16:23.619Z,11.10
2023-04-17T07:21:29.272Z,11.90
2023-04-17T07:26:37.532Z,11.60
2023-04-17T07:31:43.032Z,11.10
2023-04-17T07:36:50.287Z,9.70
2023-04-17T07:41:56.851Z,10.10
2023-04-17T07:47:02.477Z,10.50
2023-04-17T07:52:08.824Z,11.60
2023-04-17T07:57:15.554Z,11.40
2023-04-17T08:02:22.753Z,10.90
2023-04-17T08:07:28.770Z,10.50
2023-04-17T08:12:34.288Z,10.80
2023-04-17T08:17:41.440Z,10.90
2023-04-17T08:22:47.660Z,11.60
2023-04-17T08:27:53.230Z,10.50
2023-04-17T08:32:58.877Z,12.20
2023-04-17T08:38:04.400Z,11.30
2023-04-17T08:43:16.447Z,12.30
2023-04-17T08:48:22.950Z,11.70
2023-04-17T08:53:28.582Z,12.10
2023-04-17T08:58:35.800Z,10.60
2023-04-17T09:03:43.521Z,9.60
2023-04-17T09:09:00.714Z,10.00
2023-04-17T09:14:06.358Z,9.80
2023-04-17T09:19:12.106Z,9.50
2023-04-17T09:24:32.099Z,9.80
2023-04-17T09:29:58.060Z,10.40
2023-04-17T09:35:06.153Z,9.40
2023-04-17T09:40:12.776Z,9.40
2023-04-17T09:45:24.464Z,9.30
2023-04-17T09:50:32.428Z,8.90
2023-04-17T09:55:41.696Z,8.30
2023-04-17T10:00:48.250Z,9.00
2023-04-17T10:05:54.271Z,9.80
2023-04-17T10:11:07.274Z,9.70
2023-04-17T10:16:13.111Z,9.30
2023-04-17T10:21:24.265Z,8.90
2023-04-17T10:26:37.975Z,8.60
2023-04-17T10:32:26.562Z,8.90
2023-04-17T10:37:59.423Z,9.20
2023-04-17T10:43:07.530Z,8.10
2023-04-17T10:48:26.521Z,7.30
2023-04-17T10:53:42.798Z,7.80
2023-04-17T10:58:59.721Z,7.90
2023-04-17T11:04:06.287Z,7.30
2023-04-17T11:09:12.268Z,7.30
2023-04-17T11:14:19.999Z,6.50
2023-04-17T11:19:26.616Z,7.20
2023-04-17T11:24:32.801Z,6.80
2023-04-17T11:29:38.210Z,7.00
2023-04-17T11:34:44.056Z,6.70
2023-04-17T11:39:49.480Z,7.60
2023-04-17T11:45:07.719Z,7.00
2023-04-17T11:50:16.750Z,7.60
2023-04-17T11:55:22.845Z,8.00
2023-04-17T12:00:30.162Z,7.00
2023-04-17T12:05:36.409Z,7.20
2023-04-17T12:10:45.559Z,6.90
2023-04-17T12:15:51.067Z,7.00
2023-04-17T12:20:56.701Z,7.40
2023-04-17T12:26:02.085Z,6.50
2023-04-17T12:31:07.915Z,7.00
2023-04-17T12:36:13.543Z,7.40
2023-04-17T12:41:20.091Z,7.80
2023-04-17T12:46:26.090Z,7.20
2023-04-17T12:51:37.476Z,7.90
2023-04-17T12:56:42.976Z,7.00
2023-04-17T13:01:48.695Z,7.00
2023-04-17T13:06:54.056Z,7.30
2023-04-17T13:11:59.530Z,6.00
2023-04-17T13:17:06.359Z,6.20
2023-04-17T13:22:12.297Z,6.70
2023-04-17T13:27:17.654Z,4.80
2023-04-17T13:32:23.398Z,4.70
2023-04-17T13:37:28.919Z,6.00
2023-04-17T13:42:34.381Z,5.20
2023-04-17T13:47:40.454Z,5.30
2023-04-17T13:52:46.008Z,5.80
2023-04-17T13:57:51.722Z,4.60
2023-04-17T14:02:57.536Z,5.10
2023-04-17T14:08:03.182Z,4.40
2023-04-17T14:13:09.651Z,4.90
2023-04-17T14:18:15.700Z,5.10
2023-04-17T14:23:21.155Z,4.80
2023-04-17T14:28:26.963Z,5.40
2023-04-17T14:33:32.723Z,5.20
2023-04-17T14:38:38.479Z,5.30
2023-04-17T14:43:44.681Z,5.40
2023-04-17T14:48:55.284Z,6.20
2023-04-17T14:54:01.525Z,5.80
2023-04-17T14:59:07.093Z,6.20
2023-04-17T15:04:12.635Z,6.00
2023-04-17T15:09:18.398Z,6.80
2023-04-17T15:14:23.980Z,5.90
2023-04-17T15:19:29.535Z,5.70
2023-04-17T15:24:36.004Z,5.60
2023-04-17T15:29:41.346Z,6.70
2023-04-17T15:34:47.420Z,6.00
2023-04-17T15:39:52.864Z,6.20
2023-04-17T15:44:58.529Z,6.00
2023-04-17T15:50:06.524Z,5.90
2023-04-17T15:55:12.512Z,6.40
2023-04-17T16:00:19.460Z,6.90
2023-04-17T16:05:24.960Z,6.40
2023-04-17T16:10:30.944Z,6.30
2023-04-17T16:15:36.593Z,7.70
2023-04-17T16:20:42.284Z,7.30
2023-04-17T16:25:50.264Z,7.60
2023-04-17T16:30:56.393Z,7.80
2023-04-17T16:36:02.300Z,6.80
2023-04-17T16:41:08.197Z,6.50
2023-04-17T16:46:23.853Z,7.50
2023-04-17T16:51:34.235Z,7.10
2023-04-17T16:56:40.413Z,7.70
2023-04-17T17:01:47.285Z,6.60
2023-04-17T17:06:52.829Z,6.70
2023-04-17T17:11:58.323Z,7.10
2023-04-17T17:17:03.764Z,8.20
2023-04-17T17:22:09.914Z,7.60
2023-04-17T17:27:15.627Z,7.00
2023-04-17T17:32:21.481Z,7.00
2023-04-17T17:37:27.687Z,6.80
2023-04-17T17:42:33.596Z,7.30
2023-04-17T17:47:40.624Z,8.30
2023-04-17T17:52:46.826Z,7.20
2023-04-17T17:57:52.242Z,7.80
2023-04-17T18:02:57.927Z,6.90
2023-04-17T18:08:03.796Z,8.00
2023-04-17T18:13:09.550Z,7.50
2023-04-17T18:18:15.341Z,7.20
2023-04-17T18:23:21.370Z,7.80
2023-04-17T18:28:27.497Z,9.40
2023-04-17T18:33:33.709Z,9.00
2023-04-17T18:38:39.522Z,9.00
2023-04-17T18:43:44.939Z,9.90
2023-04-17T18:48:50.725Z,9.00
2023-04-17T18:53:56.482Z,9.90
2023-04-17T18:59:02.516Z,8.40
2023-04-17T19:04:08.303Z,9.10
2023-04-17T19:09:14.100Z,9.40
2023-04-17T19:14:19.770Z,9.00
2023-04-17T19:19:25.644Z,9.30
2023-04-17T19:24:32.296Z,12.60
2023-04-17T19:29:38.341Z,12.00
2023-04-17T19:34:44.432Z,11.60
2023-04-17T19:39:51.592Z,11.20
2023-04-17T19:45:00.129Z,11.70
2023-04-17T19:50:06.700Z,11.50
2023-04-17T19:55:12.955Z,11.10
2023-04-17T20:00:19.398Z,12.20
2023-04-17T20:05:25.353Z,13.00
2023-04-17T20:10:30.970Z,12.60
2023-04-17T20:15:36.335Z,12.80
2023-04-17T20:20:41.787Z,11.10
2023-04-17T20:25:47.312Z,12.30
2023-04-17T20:30:52.871Z,12.60
2023-04-17T20:35:58.930Z,12.30
2023-04-17T20:41:04.608Z,12.70
2023-04-17T20:46:10.360Z,12.10
2023-04-17T20:51:18.273Z,16.30
2023-04-17T20:56:24.280Z,12.50
2023-04-17T21:01:29.834Z,13.30
2023-04-17T21:06:35.619Z,12.80
2023-04-17T21:11:41.670Z,16.20
2023-04-17T21:16:47.113Z,12.90
2023-04-17T21:21:53.425Z,12.50
2023-04-17T21:27:01.013Z,13.20
2023-04-17T21:32:07.297Z,13.10
2023-04-17T21:37:12.647Z,12.10
2023-04-17T21:42:18.103Z,13.40
2023-04-17T21:47:23.537Z,14.00
2023-04-17T21:52:29.290Z,12.60
2023-04-17T21:57:35.850Z,12.80
2023-04-17T22:02:41.506Z,12.90
2023-04-17T22:07:54.352Z,14.10
2023-04-17T22:13:01.204Z,13.40
2023-04-17T22:18:07.414Z,15.30
2023-04-17T22:23:12.992Z,14.70
2023-04-17T22:28:18.774Z,13.10
2023-04-17T22:33:24.317Z,13.00
2023-04-17T22:38:29.718Z,14.70
2023-04-17T22:43:36.380Z,15.80
2023-04-17T22:48:45.201Z,14.90
2023-04-17T22:53:50.957Z,15.70
2023-04-17T22:58:56.518Z,13.70
2023-04-17T23:04:01.921Z,15.50
2023-04-17T23:09:07.607Z,15.90
2023-04-17T23:14:13.410Z,14.70
2023-04-17T23:19:21.198Z,15.90
2023-04-17T23:24:26.668Z,16.50
2023-04-17T23:29:32.070Z,15.70
2023-04-17T23:34:37.907Z,15.20
2023-04-17T23:39:43.712Z,16.30
2023-04-17T23:44:49.337Z,16.30
2023-04-17T23:49:54.715Z,15.10
2023-04-17T23:55:00.099Z,14.30
